sensor_id;sensor_type;location;lat;lon;timestamp;temperature;humidity
13856;DHT22;6998;53.608;9.958;2022-12-18T00:01:23;-6.50;99.90
13856;DHT22;6998;53.608;9.958;2022-12-18T00:03:52;-6.50;99.90
13856;DHT22;6998;53.608;9.958;2022-12-18T00:06:23;-6.50;99.90
13856;DHT22;6998;53.608;9.958;2022-12-18T00:08:50;-6.50;99.90
13856;DHT22;6998;53.608;9.958;2022-12-18T00:11:25;-6.50;99.90
13856;DHT22;6998;53.608;9.958;2022-12-18T00:13:56;-6.50;99.90
13856;DHT22;6998;53.608;9.958;2022-12-18T00:16:27;-6.60;99.90
13856;DHT22;6998;53.608;9.958;2022-12-18T00:18:58;-6.50;99.90
13856;DHT22;6998;53.608;9.958;2022-12-18T00:21:28;-6.60;99.90
13856;DHT22;6998;53.608;9.958;2022-12-18T00:23:55;-6.60;99.90
13856;DHT22;6998;53.608;9.958;2022-12-18T00:26:27;-6.50;99.90
13856;DHT22;6998;53.608;9.958;2022-12-18T00:28:57;-6.50;99.90
13856;DHT22;6998;53.608;9.958;2022-12-18T00:31:25;-6.50;99.90
13856;DHT22;6998;53.608;9.958;2022-12-18T00:33:55;-6.60;99.90
13856;DHT22;6998;53.608;9.958;2022-12-18T00:36:23;-6.50;99.90
13856;DHT22;6998;53.608;9.958;2022-12-18T00:38:51;-6.60;99.90
13856;DHT22;6998;53.608;9.958;2022-12-18T00:41:19;-6.60;99.90
13856;DHT22;6998;53.608;9.958;2022-12-18T00:43:59;-6.40;99.90
13856;DHT22;6998;53.608;9.958;2022-12-18T00:46:28;-6.50;99.90
13856;DHT22;6998;53.608;9.958;2022-12-18T00:48:56;-6.60;99.90
13856;DHT22;6998;53.608;9.958;2022-12-18T00:51:23;-6.60;99.90
13856;DHT22;6998;53.608;9.958;2022-12-18T00:53:50;-6.50;99.90
13856;DHT22;6998;53.608;9.958;2022-12-18T00:56:18;-6.50;99.90
13856;DHT22;6998;53.608;9.958;2022-12-18T00:58:45;-6.50;99.90
13856;DHT22;6998;53.608;9.958;2022-12-18T01:01:12;-6.60;99.90
13856;DHT22;6998;53.608;9.958;2022-12-18T01:03:41;-6.60;99.90
13856;DHT22;6998;53.608;9.958;2022-12-18T01:06:12;-6.60;99.90
13856;DHT22;6998;53.608;9.958;2022-12-18T01:08:39;-6.60;99.90
13856;DHT22;6998;53.608;9.958;2022-12-18T01:11:08;-6.60;99.90
13856;DHT22;6998;53.608;9.958;2022-12-18T01:13:36;-6.60;99.90
13856;DHT22;6998;53.608;9.958;2022-12-18T01:16:03;-6.60;99.90
13856;DHT22;6998;53.608;9.958;2022-12-18T01:18:30;-6.60;99.90
13856;DHT22;6998;53.608;9.958;2022-12-18T01:20:57;-6.60;99.90
13856;DHT22;6998;53.608;9.958;2022-12-18T01:23:26;-6.60;99.90
13856;DHT22;6998;53.608;9.958;2022-12-18T01:25:53;-6.60;99.90
13856;DHT22;6998;53.608;9.958;2022-12-18T01:28:21;-6.60;99.90
13856;DHT22;6998;53.608;9.958;2022-12-18T01:30:48;-6.50;99.90
13856;DHT22;6998;53.608;9.958;2022-12-18T01:33:15;-6.50;99.90
13856;DHT22;6998;53.608;9.958;2022-12-18T01:35:42;-6.50;99.90
13856;DHT22;6998;53.608;9.958;2022-12-18T01:38:10;-6.50;99.90
13856;DHT22;6998;53.608;9.958;2022-12-18T01:40:38;-6.50;99.90
13856;DHT22;6998;53.608;9.958;2022-12-18T01:43:08;-6.50;99.90
13856;DHT22;6998;53.608;9.958;2022-12-18T01:45:35;-6.50;99.90
13856;DHT22;6998;53.608;9.958;2022-12-18T01:48:03;-6.50;99.90
13856;DHT22;6998;53.608;9.958;2022-12-18T01:50:33;-6.50;99.90
13856;DHT22;6998;53.608;9.958;2022-12-18T01:53:06;-6.50;99.90
13856;DHT22;6998;53.608;9.958;2022-12-18T01:55:40;-6.50;99.90
13856;DHT22;6998;53.608;9.958;2022-12-18T01:58:16;-6.50;99.90
13856;DHT22;6998;53.608;9.958;2022-12-18T02:00:45;-6.50;99.90
13856;DHT22;6998;53.608;9.958;2022-12-18T02:03:11;-6.50;99.90
13856;DHT22;6998;53.608;9.958;2022-12-18T02:05:44;-6.50;99.90
13856;DHT22;6998;53.608;9.958;2022-12-18T02:08:18;-6.50;99.90
13856;DHT22;6998;53.608;9.958;2022-12-18T02:10:56;-6.50;99.90
13856;DHT22;6998;53.608;9.958;2022-12-18T02:13:32;-6.50;99.90
13856;DHT22;6998;53.608;9.958;2022-12-18T02:16:08;-6.50;99.90
13856;DHT22;6998;53.608;9.958;2022-12-18T02:18:40;-6.50;99.90
13856;DHT22;6998;53.608;9.958;2022-12-18T02:21:15;-6.50;99.90
13856;DHT22;6998;53.608;9.958;2022-12-18T02:23:54;-6.50;99.90
13856;DHT22;6998;53.608;9.958;2022-12-18T02:26:28;-6.50;99.90
13856;DHT22;6998;53.608;9.958;2022-12-18T02:29:00;-6.60;99.90
13856;DHT22;6998;53.608;9.958;2022-12-18T02:31:33;-6.60;99.90
13856;DHT22;6998;53.608;9.958;2022-12-18T02:34:04;-6.60;99.90
13856;DHT22;6998;53.608;9.958;2022-12-18T02:36:33;-6.60;99.90
13856;DHT22;6998;53.608;9.958;2022-12-18T02:39:05;-6.60;99.90
13856;DHT22;6998;53.608;9.958;2022-12-18T02:41:36;-6.70;99.90
13856;DHT22;6998;53.608;9.958;2022-12-18T02:44:09;-6.70;99.90
13856;DHT22;6998;53.608;9.958;2022-12-18T02:46:39;-6.60;99.90
13856;DHT22;6998;53.608;9.958;2022-12-18T02:49:17;-6.70;99.90
13856;DHT22;6998;53.608;9.958;2022-12-18T02:51:52;-6.70;99.90
13856;DHT22;6998;53.608;9.958;2022-12-18T02:54:31;-6.80;99.90
13856;DHT22;6998;53.608;9.958;2022-12-18T02:57:08;-6.80;99.90
13856;DHT22;6998;53.608;9.958;2022-12-18T02:59:49;-6.80;99.90
13856;DHT22;6998;53.608;9.958;2022-12-18T03:02:23;-6.80;99.90
13856;DHT22;6998;53.608;9.958;2022-12-18T03:04:55;-6.80;99.90
13856;DHT22;6998;53.608;9.958;2022-12-18T03:07:32;-6.80;99.90
13856;DHT22;6998;53.608;9.958;2022-12-18T03:10:00;-6.80;99.90
13856;DHT22;6998;53.608;9.958;2022-12-18T03:12:31;-6.80;99.90
13856;DHT22;6998;53.608;9.958;2022-12-18T03:15:02;-6.80;99.90
13856;DHT22;6998;53.608;9.958;2022-12-18T03:17:33;-6.90;99.90
13856;DHT22;6998;53.608;9.958;2022-12-18T03:20:04;-7.00;99.90
13856;DHT22;6998;53.608;9.958;2022-12-18T03:22:33;-7.00;99.90
13856;DHT22;6998;53.608;9.958;2022-12-18T03:25:06;-6.90;99.90
13856;DHT22;6998;53.608;9.958;2022-12-18T03:27:39;-7.00;99.90
13856;DHT22;6998;53.608;9.958;2022-12-18T03:30:09;-7.00;99.90
13856;DHT22;6998;53.608;9.958;2022-12-18T03:32:41;-7.00;99.90
13856;DHT22;6998;53.608;9.958;2022-12-18T03:35:11;-7.00;99.90
13856;DHT22;6998;53.608;9.958;2022-12-18T03:37:39;-7.10;99.90
13856;DHT22;6998;53.608;9.958;2022-12-18T03:40:07;-7.10;99.90
13856;DHT22;6998;53.608;9.958;2022-12-18T03:42:42;-7.10;99.90
13856;DHT22;6998;53.608;9.958;2022-12-18T03:45:19;-7.10;99.90
13856;DHT22;6998;53.608;9.958;2022-12-18T03:47:57;-7.10;99.90
13856;DHT22;6998;53.608;9.958;2022-12-18T03:50:30;-7.20;99.90
13856;DHT22;6998;53.608;9.958;2022-12-18T03:53:07;-7.20;99.90
13856;DHT22;6998;53.608;9.958;2022-12-18T03:55:36;-7.30;99.90
13856;DHT22;6998;53.608;9.958;2022-12-18T03:58:06;-7.30;99.90
13856;DHT22;6998;53.608;9.958;2022-12-18T04:00:34;-7.30;99.90
13856;DHT22;6998;53.608;9.958;2022-12-18T04:03:02;-7.40;99.90
13856;DHT22;6998;53.608;9.958;2022-12-18T04:05:30;-7.30;99.90
13856;DHT22;6998;53.608;9.958;2022-12-18T04:08:00;-7.30;99.90
13856;DHT22;6998;53.608;9.958;2022-12-18T04:10:27;-7.40;99.90
13856;DHT22;6998;53.608;9.958;2022-12-18T04:12:57;-7.40;99.90
13856;DHT22;6998;53.608;9.958;2022-12-18T04:15:25;-7.50;99.90
13856;DHT22;6998;53.608;9.958;2022-12-18T04:17:52;-7.60;99.90
13856;DHT22;6998;53.608;9.958;2022-12-18T04:20:19;-7.60;99.90
13856;DHT22;6998;53.608;9.958;2022-12-18T04:22:46;-7.60;99.90
13856;DHT22;6998;53.608;9.958;2022-12-18T04:25:13;-7.50;99.90
13856;DHT22;6998;53.608;9.958;2022-12-18T04:27:40;-7.50;99.90
13856;DHT22;6998;53.608;9.958;2022-12-18T04:30:07;-7.50;99.90
13856;DHT22;6998;53.608;9.958;2022-12-18T04:32:35;-7.50;99.90
13856;DHT22;6998;53.608;9.958;2022-12-18T04:35:08;-7.50;99.90
13856;DHT22;6998;53.608;9.958;2022-12-18T04:37:37;-7.40;99.90
13856;DHT22;6998;53.608;9.958;2022-12-18T04:40:05;-7.40;99.90
13856;DHT22;6998;53.608;9.958;2022-12-18T04:42:32;-7.40;99.90
13856;DHT22;6998;53.608;9.958;2022-12-18T04:44:59;-7.40;99.90
13856;DHT22;6998;53.608;9.958;2022-12-18T04:47:26;-7.40;99.90
13856;DHT22;6998;53.608;9.958;2022-12-18T04:49:55;-7.40;99.90
13856;DHT22;6998;53.608;9.958;2022-12-18T04:52:22;-7.40;99.90
13856;DHT22;6998;53.608;9.958;2022-12-18T04:54:49;-7.40;99.90
13856;DHT22;6998;53.608;9.958;2022-12-18T04:57:16;-7.40;99.90
13856;DHT22;6998;53.608;9.958;2022-12-18T04:59:43;-7.40;99.90
13856;DHT22;6998;53.608;9.958;2022-12-18T05:02:10;-7.40;99.90
13856;DHT22;6998;53.608;9.958;2022-12-18T05:04:37;-7.40;99.90
13856;DHT22;6998;53.608;9.958;2022-12-18T05:07:05;-7.40;99.90
13856;DHT22;6998;53.608;9.958;2022-12-18T05:09:32;-7.30;99.90
13856;DHT22;6998;53.608;9.958;2022-12-18T05:11:59;-7.30;99.90
13856;DHT22;6998;53.608;9.958;2022-12-18T05:14:27;-7.30;99.90
13856;DHT22;6998;53.608;9.958;2022-12-18T05:16:55;-7.30;99.90
13856;DHT22;6998;53.608;9.958;2022-12-18T05:19:23;-7.40;99.90
13856;DHT22;6998;53.608;9.958;2022-12-18T05:21:50;-7.30;99.90
13856;DHT22;6998;53.608;9.958;2022-12-18T05:24:18;-7.30;99.90
13856;DHT22;6998;53.608;9.958;2022-12-18T05:26:45;-7.30;99.90
13856;DHT22;6998;53.608;9.958;2022-12-18T05:29:13;-7.40;99.90
13856;DHT22;6998;53.608;9.958;2022-12-18T05:31:40;-7.40;99.90
13856;DHT22;6998;53.608;9.958;2022-12-18T05:34:07;-7.40;99.90
13856;DHT22;6998;53.608;9.958;2022-12-18T05:36:33;-7.40;99.90
13856;DHT22;6998;53.608;9.958;2022-12-18T05:39:01;-7.40;99.90
13856;DHT22;6998;53.608;9.958;2022-12-18T05:41:30;-7.40;99.90
13856;DHT22;6998;53.608;9.958;2022-12-18T05:43:56;-7.40;99.90
13856;DHT22;6998;53.608;9.958;2022-12-18T05:46:25;-7.40;99.90
13856;DHT22;6998;53.608;9.958;2022-12-18T05:48:52;-7.40;99.90
13856;DHT22;6998;53.608;9.958;2022-12-18T05:51:21;-7.40;99.90
13856;DHT22;6998;53.608;9.958;2022-12-18T05:53:48;-7.40;99.90
13856;DHT22;6998;53.608;9.958;2022-12-18T05:56:17;-7.40;99.90
13856;DHT22;6998;53.608;9.958;2022-12-18T05:58:46;-7.40;99.90
13856;DHT22;6998;53.608;9.958;2022-12-18T06:01:15;-7.30;99.90
13856;DHT22;6998;53.608;9.958;2022-12-18T06:03:42;-7.30;99.90
13856;DHT22;6998;53.608;9.958;2022-12-18T06:06:13;-7.30;99.90
13856;DHT22;6998;53.608;9.958;2022-12-18T06:08:42;-7.20;99.90
13856;DHT22;6998;53.608;9.958;2022-12-18T06:11:10;-7.20;99.90
13856;DHT22;6998;53.608;9.958;2022-12-18T06:13:38;-7.20;99.90
13856;DHT22;6998;53.608;9.958;2022-12-18T06:16:07;-7.30;99.90
13856;DHT22;6998;53.608;9.958;2022-12-18T06:18:34;-7.10;99.90
13856;DHT22;6998;53.608;9.958;2022-12-18T06:21:01;-7.20;99.90
13856;DHT22;6998;53.608;9.958;2022-12-18T06:23:27;-7.20;99.90
13856;DHT22;6998;53.608;9.958;2022-12-18T06:25:55;-7.20;99.90
13856;DHT22;6998;53.608;9.958;2022-12-18T06:28:21;-7.20;99.90
13856;DHT22;6998;53.608;9.958;2022-12-18T06:30:49;-7.10;99.90
13856;DHT22;6998;53.608;9.958;2022-12-18T06:33:18;-7.20;99.90
13856;DHT22;6998;53.608;9.958;2022-12-18T06:35:46;-7.10;99.90
13856;DHT22;6998;53.608;9.958;2022-12-18T06:38:12;-7.10;99.90
13856;DHT22;6998;53.608;9.958;2022-12-18T06:40:39;-7.10;99.90
13856;DHT22;6998;53.608;9.958;2022-12-18T06:43:06;-7.10;99.90
13856;DHT22;6998;53.608;9.958;2022-12-18T06:45:33;-7.20;99.90
13856;DHT22;6998;53.608;9.958;2022-12-18T06:48:00;-7.10;99.90
13856;DHT22;6998;53.608;9.958;2022-12-18T06:50:29;-7.00;99.90
13856;DHT22;6998;53.608;9.958;2022-12-18T06:52:55;-7.00;99.90
13856;DHT22;6998;53.608;9.958;2022-12-18T06:55:23;-7.00;99.90
13856;DHT22;6998;53.608;9.958;2022-12-18T06:57:52;-6.90;99.90
13856;DHT22;6998;53.608;9.958;2022-12-18T07:00:20;-6.90;99.90
13856;DHT22;6998;53.608;9.958;2022-12-18T07:02:48;-6.80;99.90
13856;DHT22;6998;53.608;9.958;2022-12-18T07:05:15;-6.80;99.90
13856;DHT22;6998;53.608;9.958;2022-12-18T07:07:44;-6.70;99.90
13856;DHT22;6998;53.608;9.958;2022-12-18T07:10:11;-6.80;99.90
13856;DHT22;6998;53.608;9.958;2022-12-18T07:12:38;-6.80;99.90
13856;DHT22;6998;53.608;9.958;2022-12-18T07:15:06;-6.80;99.90
13856;DHT22;6998;53.608;9.958;2022-12-18T07:17:33;-6.80;99.90
13856;DHT22;6998;53.608;9.958;2022-12-18T07:20:00;-6.80;99.90
13856;DHT22;6998;53.608;9.958;2022-12-18T07:22:27;-6.80;99.90
13856;DHT22;6998;53.608;9.958;2022-12-18T07:24:55;-6.80;99.90
13856;DHT22;6998;53.608;9.958;2022-12-18T07:27:22;-6.80;99.90
13856;DHT22;6998;53.608;9.958;2022-12-18T07:29:49;-6.80;99.90
13856;DHT22;6998;53.608;9.958;2022-12-18T07:32:15;-6.70;99.90
13856;DHT22;6998;53.608;9.958;2022-12-18T07:34:42;-6.70;99.90
13856;DHT22;6998;53.608;9.958;2022-12-18T07:37:09;-6.80;99.90
13856;DHT22;6998;53.608;9.958;2022-12-18T07:39:36;-6.80;99.90
13856;DHT22;6998;53.608;9.958;2022-12-18T07:42:07;-6.80;99.90
13856;DHT22;6998;53.608;9.958;2022-12-18T07:44:51;-6.80;99.90
13856;DHT22;6998;53.608;9.958;2022-12-18T07:47:18;-6.90;99.90
13856;DHT22;6998;53.608;9.958;2022-12-18T07:49:45;-6.90;99.90
13856;DHT22;6998;53.608;9.958;2022-12-18T07:52:11;-6.90;99.90
13856;DHT22;6998;53.608;9.958;2022-12-18T07:54:38;-6.90;99.90
13856;DHT22;6998;53.608;9.958;2022-12-18T07:57:08;-6.90;99.90
13856;DHT22;6998;53.608;9.958;2022-12-18T07:59:36;-6.80;99.90
13856;DHT22;6998;53.608;9.958;2022-12-18T08:02:03;-6.80;99.90
13856;DHT22;6998;53.608;9.958;2022-12-18T08:04:30;-6.80;99.90
13856;DHT22;6998;53.608;9.958;2022-12-18T08:06:57;-6.70;99.90
13856;DHT22;6998;53.608;9.958;2022-12-18T08:09:24;-6.70;99.90
13856;DHT22;6998;53.608;9.958;2022-12-18T08:11:50;-6.60;99.90
13856;DHT22;6998;53.608;9.958;2022-12-18T08:14:18;-6.50;99.90
13856;DHT22;6998;53.608;9.958;2022-12-18T08:16:45;-6.50;99.90
13856;DHT22;6998;53.608;9.958;2022-12-18T08:19:12;-6.40;99.90
13856;DHT22;6998;53.608;9.958;2022-12-18T08:21:39;-6.40;99.90
13856;DHT22;6998;53.608;9.958;2022-12-18T08:24:06;-6.40;99.90
13856;DHT22;6998;53.608;9.958;2022-12-18T08:26:33;-6.20;99.90
13856;DHT22;6998;53.608;9.958;2022-12-18T08:29:00;-6.10;99.90
13856;DHT22;6998;53.608;9.958;2022-12-18T08:31:29;-6.10;99.90
13856;DHT22;6998;53.608;9.958;2022-12-18T08:33:57;-6.10;99.90
13856;DHT22;6998;53.608;9.958;2022-12-18T08:36:24;-6.10;99.90
13856;DHT22;6998;53.608;9.958;2022-12-18T08:38:51;-6.10;99.90
13856;DHT22;6998;53.608;9.958;2022-12-18T08:41:19;-6.00;99.90
13856;DHT22;6998;53.608;9.958;2022-12-18T08:43:46;-6.00;99.90
13856;DHT22;6998;53.608;9.958;2022-12-18T08:46:35;-5.90;99.90
13856;DHT22;6998;53.608;9.958;2022-12-18T08:49:03;-5.90;99.90
13856;DHT22;6998;53.608;9.958;2022-12-18T08:51:33;-5.90;99.90
13856;DHT22;6998;53.608;9.958;2022-12-18T08:54:05;-5.90;99.90
13856;DHT22;6998;53.608;9.958;2022-12-18T08:56:33;-5.90;99.90
13856;DHT22;6998;53.608;9.958;2022-12-18T08:59:00;-5.90;99.90
13856;DHT22;6998;53.608;9.958;2022-12-18T09:01:27;-5.80;99.90
13856;DHT22;6998;53.608;9.958;2022-12-18T09:03:56;-5.90;99.90
13856;DHT22;6998;53.608;9.958;2022-12-18T09:06:24;-5.90;99.90
13856;DHT22;6998;53.608;9.958;2022-12-18T09:08:53;-5.80;99.90
13856;DHT22;6998;53.608;9.958;2022-12-18T09:11:22;-5.80;99.90
13856;DHT22;6998;53.608;9.958;2022-12-18T09:13:50;-5.70;99.90
13856;DHT22;6998;53.608;9.958;2022-12-18T09:16:18;-5.70;99.90
13856;DHT22;6998;53.608;9.958;2022-12-18T09:18:46;-5.60;99.90
13856;DHT22;6998;53.608;9.958;2022-12-18T09:21:16;-5.60;99.90
13856;DHT22;6998;53.608;9.958;2022-12-18T09:23:48;-5.50;99.90
13856;DHT22;6998;53.608;9.958;2022-12-18T09:26:16;-5.40;99.90
13856;DHT22;6998;53.608;9.958;2022-12-18T09:28:44;-5.30;99.90
13856;DHT22;6998;53.608;9.958;2022-12-18T09:31:12;-5.20;99.90
13856;DHT22;6998;53.608;9.958;2022-12-18T09:33:41;-5.10;99.90
13856;DHT22;6998;53.608;9.958;2022-12-18T09:36:09;-5.10;99.90
13856;DHT22;6998;53.608;9.958;2022-12-18T09:38:39;-5.00;99.90
13856;DHT22;6998;53.608;9.958;2022-12-18T09:41:30;-5.00;99.90
13856;DHT22;6998;53.608;9.958;2022-12-18T09:44:02;-4.90;99.90
13856;DHT22;6998;53.608;9.958;2022-12-18T09:46:33;-4.80;99.90
13856;DHT22;6998;53.608;9.958;2022-12-18T09:49:05;-4.80;99.90
13856;DHT22;6998;53.608;9.958;2022-12-18T09:51:39;-4.70;99.90
13856;DHT22;6998;53.608;9.958;2022-12-18T09:54:16;-4.60;99.90
13856;DHT22;6998;53.608;9.958;2022-12-18T09:56:49;-4.50;99.90
13856;DHT22;6998;53.608;9.958;2022-12-18T09:59:21;-4.30;99.90
13856;DHT22;6998;53.608;9.958;2022-12-18T10:01:49;-4.20;99.90
13856;DHT22;6998;53.608;9.958;2022-12-18T10:04:16;-4.20;99.90
13856;DHT22;6998;53.608;9.958;2022-12-18T10:06:49;-4.10;99.90
13856;DHT22;6998;53.608;9.958;2022-12-18T10:09:26;-4.00;99.90
13856;DHT22;6998;53.608;9.958;2022-12-18T10:12:00;-3.90;99.90
13856;DHT22;6998;53.608;9.958;2022-12-18T10:14:34;-3.80;99.90
13856;DHT22;6998;53.608;9.958;2022-12-18T10:17:12;-3.80;99.90
13856;DHT22;6998;53.608;9.958;2022-12-18T10:19:47;-3.70;99.90
13856;DHT22;6998;53.608;9.958;2022-12-18T10:22:39;-3.70;99.90
13856;DHT22;6998;53.608;9.958;2022-12-18T10:25:41;-3.50;99.90
13856;DHT22;6998;53.608;9.958;2022-12-18T10:28:27;-3.40;99.90
13856;DHT22;6998;53.608;9.958;2022-12-18T10:30:59;-3.50;99.90
13856;DHT22;6998;53.608;9.958;2022-12-18T10:33:30;-3.40;99.90
13856;DHT22;6998;53.608;9.958;2022-12-18T10:36:00;-3.40;99.90
13856;DHT22;6998;53.608;9.958;2022-12-18T10:38:42;-3.30;99.90
13856;DHT22;6998;53.608;9.958;2022-12-18T10:41:27;-3.30;99.90
13856;DHT22;6998;53.608;9.958;2022-12-18T10:44:16;-3.10;99.90
13856;DHT22;6998;53.608;9.958;2022-12-18T10:46:45;-3.10;99.90
13856;DHT22;6998;53.608;9.958;2022-12-18T10:49:23;-3.10;99.90
13856;DHT22;6998;53.608;9.958;2022-12-18T10:52:11;-2.90;99.90
13856;DHT22;6998;53.608;9.958;2022-12-18T10:54:48;-2.80;99.90
13856;DHT22;6998;53.608;9.958;2022-12-18T11:07:16;-2.30;99.90
13856;DHT22;6998;53.608;9.958;2022-12-18T11:12:49;-2.10;99.90
13856;DHT22;6998;53.608;9.958;2022-12-18T11:15:56;-2.00;99.90
13856;DHT22;6998;53.608;9.958;2022-12-18T11:22:36;-1.90;99.90
13856;DHT22;6998;53.608;9.958;2022-12-18T11:25:20;-1.90;99.90
13856;DHT22;6998;53.608;9.958;2022-12-18T11:27:48;-1.90;99.90
13856;DHT22;6998;53.608;9.958;2022-12-18T11:30:33;-1.80;99.90
13856;DHT22;6998;53.608;9.958;2022-12-18T11:35:45;-1.70;99.90
13856;DHT22;6998;53.608;9.958;2022-12-18T11:38:23;-1.60;99.90
13856;DHT22;6998;53.608;9.958;2022-12-18T11:40:56;-1.60;99.90
13856;DHT22;6998;53.608;9.958;2022-12-18T11:43:28;-1.60;99.90
13856;DHT22;6998;53.608;9.958;2022-12-18T11:46:00;-1.50;99.90
13856;DHT22;6998;53.608;9.958;2022-12-18T11:48:32;-1.50;99.90
13856;DHT22;6998;53.608;9.958;2022-12-18T11:51:01;-1.40;99.90
13856;DHT22;6998;53.608;9.958;2022-12-18T11:53:32;-1.40;99.90
13856;DHT22;6998;53.608;9.958;2022-12-18T11:56:07;-1.40;99.90
13856;DHT22;6998;53.608;9.958;2022-12-18T11:58:43;-1.40;99.90
13856;DHT22;6998;53.608;9.958;2022-12-18T12:01:18;-1.40;99.90
13856;DHT22;6998;53.608;9.958;2022-12-18T12:06:56;-1.60;99.90
13856;DHT22;6998;53.608;9.958;2022-12-18T12:09:31;-1.60;99.90
13856;DHT22;6998;53.608;9.958;2022-12-18T12:12:15;-1.60;99.90
13856;DHT22;6998;53.608;9.958;2022-12-18T12:14:50;-1.60;99.90
13856;DHT22;6998;53.608;9.958;2022-12-18T12:17:30;-1.60;99.90
13856;DHT22;6998;53.608;9.958;2022-12-18T12:20:07;-1.70;99.90
13856;DHT22;6998;53.608;9.958;2022-12-18T12:22:40;-1.60;99.90
13856;DHT22;6998;53.608;9.958;2022-12-18T12:25:21;-1.60;99.90
13856;DHT22;6998;53.608;9.958;2022-12-18T12:28:01;-1.60;99.90
13856;DHT22;6998;53.608;9.958;2022-12-18T12:30:37;-1.60;99.90
13856;DHT22;6998;53.608;9.958;2022-12-18T12:33:18;-1.50;99.90
13856;DHT22;6998;53.608;9.958;2022-12-18T12:35:55;-1.60;99.90
13856;DHT22;6998;53.608;9.958;2022-12-18T12:38:29;-1.50;99.90
13856;DHT22;6998;53.608;9.958;2022-12-18T12:48:02;-1.50;99.90
13856;DHT22;6998;53.608;9.958;2022-12-18T14:31:17;-2.20;99.90
13856;DHT22;6998;53.608;9.958;2022-12-18T14:33:45;-2.40;99.90
13856;DHT22;6998;53.608;9.958;2022-12-18T14:36:39;-2.50;99.90
13856;DHT22;6998;53.608;9.958;2022-12-18T14:56:42;-2.70;99.90
13856;DHT22;6998;53.608;9.958;2022-12-18T14:59:46;-2.80;99.90
13856;DHT22;6998;53.608;9.958;2022-12-18T15:16:18;-2.70;99.90
13856;DHT22;6998;53.608;9.958;2022-12-18T20:17:09;-2.50;99.90
13856;DHT22;6998;53.608;9.958;2022-12-18T22:55:04;-1.90;99.90
13856;DHT22;6998;53.608;9.958;2022-12-18T23:35:15;-2.10;99.90
13856;DHT22;6998;53.608;9.958;2022-12-18T23:41:16;-1.80;99.90
13856;DHT22;6998;53.608;9.958;2022-12-18T23:43:57;-1.80;99.90
13856;DHT22;6998;53.608;9.958;2022-12-18T23:46:30;-1.90;99.90
13856;DHT22;6998;53.608;9.958;2022-12-18T23:49:05;-1.90;99.90
13856;DHT22;6998;53.608;9.958;2022-12-18T23:52:00;-1.90;99.90
13856;DHT22;6998;53.608;9.958;2022-12-18T23:54:29;-1.90;99.90
13856;DHT22;6998;53.608;9.958;2022-12-18T23:56:58;-1.80;99.90
13856;DHT22;6998;53.608;9.958;2022-12-18T23:59:29;-1.80;99.90
